createdAt,value
2023-05-15T00:08:21.574Z,11.03
2023-05-15T00:18:23.759Z,11.14
2023-05-15T00:28:25.882Z,10.62
2023-05-15T00:38:28.967Z,10.45
2023-05-15T00:48:31.599Z,10.67
2023-05-15T00:58:33.814Z,10.87
2023-05-15T01:08:56.858Z,10.31
2023-05-15T01:18:59.034Z,10.42
2023-05-15T01:29:24.750Z,10.51
2023-05-15T01:39:27.981Z,10.07
2023-05-15T01:49:32.026Z,9.84
2023-05-15T01:59:34.672Z,9.88
2023-05-15T02:09:37.383Z,9.79
2023-05-15T02:19:39.473Z,9.46
2023-05-15T02:29:57.580Z,9.86
2023-05-15T02:40:01.149Z,9.68
2023-05-15T02:50:04.411Z,9.41
2023-05-15T03:00:11.795Z,9.56
2023-05-15T03:10:14.039Z,9.51
2023-05-15T03:20:16.349Z,9.43
2023-05-15T03:30:18.513Z,9.16
2023-05-15T03:40:20.600Z,9.41
2023-05-15T03:50:22.805Z,9.56
2023-05-15T04:00:25.225Z,9.67
2023-05-15T04:10:27.650Z,9.62
2023-05-15T04:20:29.783Z,9.96
2023-05-15T04:30:31.868Z,9.89
2023-05-15T04:40:34.002Z,10.67
2023-05-15T04:50:37.362Z,10.38
2023-05-15T05:00:39.749Z,10.75
2023-05-15T05:10:41.845Z,10.23
2023-05-15T05:20:44.105Z,10.45
2023-05-15T05:30:47.828Z,10.43
2023-05-15T05:40:50.992Z,10.16
2023-05-15T05:50:53.131Z,10.18
2023-05-15T06:00:55.227Z,10.14
2023-05-15T06:10:57.355Z,10.12
2023-05-15T06:21:00.789Z,10.56
2023-05-15T06:31:03.040Z,10.55
2023-05-15T06:41:05.467Z,10.32
2023-05-15T06:51:07.943Z,10.40
2023-05-15T07:01:10.217Z,10.75
2023-05-15T07:11:12.327Z,11.13
2023-05-15T07:21:14.445Z,11.51
2023-05-15T07:31:16.619Z,11.36
2023-05-15T07:41:18.763Z,11.37
2023-05-15T07:51:20.924Z,11.24
2023-05-15T08:01:23.245Z,10.56
2023-05-15T08:11:25.411Z,11.14
2023-05-15T08:21:27.781Z,10.72
2023-05-15T08:31:30.144Z,11.36
2023-05-15T08:41:40.528Z,11.94
2023-05-15T08:51:43.655Z,12.42
2023-05-15T09:01:46.140Z,12.13
2023-05-15T09:11:51.212Z,12.46
2023-05-15T09:21:53.574Z,12.82
2023-05-15T09:31:56.074Z,13.27
2023-05-15T09:42:12.436Z,13.75
2023-05-15T09:52:15.797Z,13.45
2023-05-15T10:02:24.995Z,13.77
2023-05-15T10:12:28.727Z,13.39
2023-05-15T10:22:32.589Z,14.59
2023-05-15T10:32:35.238Z,15.02
2023-05-15T10:42:38.263Z,14.42
2023-05-15T10:52:40.910Z,15.55
2023-05-15T11:02:44.857Z,14.02
2023-05-15T11:13:01.193Z,15.51
2023-05-15T11:23:04.365Z,15.55
2023-05-15T11:33:10.023Z,15.36
2023-05-15T11:43:29.807Z,15.68
2023-05-15T11:53:33.553Z,15.39
2023-05-15T12:03:36.575Z,16.17
2023-05-15T12:13:39.889Z,16.64
2023-05-15T12:23:50.772Z,16.97
2023-05-15T12:33:58.733Z,16.76
2023-05-15T12:44:00.981Z,17.26
2023-05-15T12:54:03.138Z,16.42
2023-05-15T13:04:05.921Z,16.60
2023-05-15T13:14:17.189Z,17.41
2023-05-15T13:24:19.602Z,17.40
2023-05-15T13:34:21.822Z,16.68
2023-05-15T13:44:24.434Z,16.42
2023-05-15T13:54:26.637Z,16.45
2023-05-15T14:04:29.257Z,17.01
2023-05-15T14:14:31.447Z,16.04
2023-05-15T14:24:33.673Z,16.51
2023-05-15T14:34:35.871Z,16.19
2023-05-15T14:44:38.034Z,15.93
2023-05-15T14:54:40.245Z,16.22
2023-05-15T15:04:42.361Z,16.40
2023-05-15T15:14:44.606Z,15.47
2023-05-15T15:24:46.758Z,15.41
2023-05-15T15:34:48.886Z,15.79
2023-05-15T15:44:51.175Z,15.47
2023-05-15T15:54:53.461Z,14.96
2023-05-15T16:04:55.707Z,14.86
2023-05-15T16:15:00.240Z,13.86
2023-05-15T16:25:09.520Z,14.79
2023-05-15T16:35:11.628Z,14.95
2023-05-15T16:45:13.824Z,14.78
2023-05-15T16:55:17.974Z,14.42
2023-05-15T17:05:20.221Z,13.95
2023-05-15T17:15:23.103Z,14.61
2023-05-15T17:25:25.530Z,13.73
2023-05-15T17:35:30.578Z,13.95
2023-05-15T17:45:34.237Z,13.65
2023-05-15T17:55:36.438Z,13.99
2023-05-15T18:05:38.593Z,13.61
2023-05-15T18:15:40.740Z,13.82
2023-05-15T18:57:38.036Z,12.19
2023-05-15T19:07:41.525Z,12.44
2023-05-15T19:17:45.850Z,12.65
2023-05-15T19:27:48.056Z,12.74
2023-05-15T19:37:50.112Z,11.95
2023-05-15T19:47:52.253Z,11.42
2023-05-15T19:57:55.934Z,11.65
2023-05-15T20:07:58.198Z,10.71
2023-05-15T20:18:00.655Z,11.80
2023-05-15T20:28:04.155Z,11.10
2023-05-15T20:38:06.377Z,11.30
2023-05-15T20:48:10.957Z,10.78
2023-05-15T20:58:13.241Z,11.23
2023-05-15T21:08:15.366Z,11.24
2023-05-15T21:18:18.796Z,11.28
2023-05-15T21:28:20.969Z,10.93
2023-05-15T21:38:23.100Z,10.99
2023-05-15T21:48:25.778Z,11.06
2023-05-15T21:58:28.511Z,11.26
2023-05-15T22:08:30.793Z,10.63
2023-05-15T22:18:34.975Z,11.16
2023-05-15T22:28:37.374Z,10.97
2023-05-15T22:38:39.541Z,10.91
2023-05-15T22:48:41.772Z,10.50
2023-05-15T22:58:43.916Z,10.53
2023-05-15T23:08:46.659Z,10.16
2023-05-15T23:18:48.825Z,9.82
2023-05-15T23:28:50.962Z,9.47
2023-05-15T23:38:53.308Z,9.18
2023-05-15T23:48:55.364Z,8.80
2023-05-15T23:58:57.409Z,9.32
